Malaysia Virtual Airlines Airport Information Service

Subang/Sultan Abdul Aziz Shah Airport

ICAO: WMSA Country: Malaysia
Latitude: 3.13056 Longitude: 101.549
Latest Arrival : J8755 (WMPR-WMSA) Latest Departure : FY1670 (WMSA-WMKA)


WX CaptureLIVE
Data provided by noaa.gov | Fetched at 04:57:47

METAR : WMSA 290400Z 29007KT 210V340 9999 FEW018 31/23 Q1009

TAF : WMSA 282300Z 2900/3000 32006KT 9999 FEW018 TEMPO 2905/2910 27006G18KT PROB30 TEMPO 2912/2916 5000 RA FEW010 FEW017CB


Runway Data for WMSA
Data provided by openaviationdata.com

Runway ID Mag Var Hdg Length Elevation Surface ILS Freq ILS Id ILS Slope
15 0 149° 12445 ft 89 ft Asphalt 110.3 ISB 3
33 0 329° 12445 ft 89 ft Asphalt 109.9 IKL 3

Subang/Sultan Abdul Aziz Shah Airport, Malaysia
Use only for reference purposes



Not for navigational purposes.